createdAt,value
2018-07-23T00:01:44.169Z,66.33
2018-07-23T00:04:13.857Z,65.71
2018-07-23T00:06:43.770Z,66.50
2018-07-23T00:09:13.358Z,65.76
2018-07-23T00:11:42.928Z,66.41
2018-07-23T00:14:12.649Z,66.73
2018-07-23T00:16:42.571Z,65.92
2018-07-23T00:19:12.440Z,65.81
2018-07-23T00:21:42.251Z,65.47
2018-07-23T00:24:12.373Z,65.07
2018-07-23T00:26:42.031Z,64.94
2018-07-23T00:29:12.059Z,64.99
2018-07-23T00:31:41.666Z,64.84
2018-07-23T00:34:11.330Z,64.68
2018-07-23T00:36:40.986Z,65.45
2018-07-23T00:39:11.062Z,65.08
2018-07-23T00:41:40.862Z,64.53
2018-07-23T00:44:10.455Z,64.40
2018-07-23T00:46:39.986Z,64.09
2018-07-23T00:49:09.490Z,63.82
2018-07-23T00:51:39.420Z,64.12
2018-07-23T00:54:09.259Z,64.01
2018-07-23T00:56:39.127Z,64.47
2018-07-23T00:59:08.830Z,64.95
2018-07-23T01:01:38.602Z,64.84
2018-07-23T01:04:08.701Z,64.88
2018-07-23T01:06:38.603Z,64.61
2018-07-23T01:09:10.130Z,64.79
2018-07-23T01:11:39.946Z,64.58
2018-07-23T01:14:09.859Z,65.03
2018-07-23T01:16:39.810Z,65.09
2018-07-23T01:19:09.481Z,65.05
2018-07-23T01:21:39.238Z,65.72
2018-07-23T01:24:08.768Z,65.46
2018-07-23T01:26:38.518Z,65.42
2018-07-23T01:29:08.228Z,65.36
2018-07-23T01:31:37.952Z,65.76
2018-07-23T01:34:07.726Z,66.67
2018-07-23T01:36:37.365Z,66.75
2018-07-23T01:39:09.082Z,66.57
2018-07-23T01:41:38.802Z,66.51
2018-07-23T01:44:08.648Z,66.45
2018-07-23T01:46:38.277Z,65.92
2018-07-23T01:49:08.174Z,66.40
2018-07-23T01:51:37.878Z,66.48
2018-07-23T01:54:07.466Z,66.87
2018-07-23T01:56:37.135Z,66.76
2018-07-23T01:59:06.873Z,66.67
2018-07-23T02:01:36.750Z,66.91
2018-07-23T02:04:06.955Z,66.95
2018-07-23T02:06:36.725Z,66.86
2018-07-23T02:09:09.335Z,68.07
2018-07-23T02:11:39.013Z,67.77
2018-07-23T02:14:09.384Z,69.08
2018-07-23T02:16:38.862Z,69.24
2018-07-23T02:19:08.643Z,69.42
2018-07-23T02:21:38.649Z,69.04
2018-07-23T02:24:08.570Z,69.91
2018-07-23T02:26:38.203Z,70.20
2018-07-23T02:29:07.664Z,70.03
2018-07-23T02:31:37.230Z,69.97
2018-07-23T02:34:06.911Z,70.49
2018-07-23T02:36:36.653Z,70.88
2018-07-23T02:39:09.311Z,70.17
2018-07-23T02:41:39.040Z,70.75
2018-07-23T02:44:08.659Z,70.57
2018-07-23T02:46:38.637Z,70.45
2018-07-23T02:49:08.729Z,70.09
2018-07-23T02:51:38.558Z,70.53
2018-07-23T02:54:08.742Z,70.48
2018-07-23T02:56:38.659Z,70.55
2018-07-23T02:59:08.358Z,70.72
2018-07-23T03:01:37.918Z,71.88
2018-07-23T03:04:07.741Z,71.85
2018-07-23T03:06:37.555Z,72.34
2018-07-23T03:09:08.166Z,72.44
2018-07-23T03:11:37.912Z,72.33
2018-07-23T03:14:07.662Z,72.89
2018-07-23T03:16:37.523Z,72.24
2018-07-23T03:19:07.146Z,71.57
2018-07-23T03:21:37.218Z,71.46
2018-07-23T03:24:06.760Z,71.36
2018-07-23T03:26:36.593Z,71.43
2018-07-23T03:29:06.612Z,71.72
2018-07-23T03:31:36.076Z,71.38
2018-07-23T03:34:05.718Z,71.10
2018-07-23T03:36:35.187Z,71.95
2018-07-23T03:39:06.608Z,72.05
2018-07-23T03:41:36.271Z,71.93
2018-07-23T03:44:05.989Z,71.91
2018-07-23T03:46:35.499Z,72.28
2018-07-23T03:49:05.132Z,71.92
2018-07-23T03:51:34.750Z,71.90
2018-07-23T03:54:04.355Z,72.32
2018-07-23T03:56:34.022Z,72.74
2018-07-23T03:59:03.682Z,72.63
2018-07-23T04:01:33.539Z,72.23
2018-07-23T04:04:03.047Z,71.99
2018-07-23T04:06:32.500Z,72.18
2018-07-23T04:09:02.119Z,72.45
2018-07-23T04:11:31.741Z,71.57
2018-07-23T04:14:01.276Z,71.94
2018-07-23T04:16:30.861Z,71.99
2018-07-23T04:19:00.574Z,71.49
2018-07-23T04:21:30.202Z,71.09
2018-07-23T04:23:59.730Z,70.71
2018-07-23T04:26:29.322Z,69.93
2018-07-23T04:28:59.047Z,68.13
2018-07-23T04:31:28.554Z,67.33
2018-07-23T04:33:58.107Z,68.02
2018-07-23T04:36:27.654Z,68.38
2018-07-23T04:38:57.235Z,68.21
2018-07-23T04:41:26.750Z,67.17
2018-07-23T04:43:56.598Z,66.91
2018-07-23T04:46:26.294Z,66.50
2018-07-23T04:48:55.877Z,66.16
2018-07-23T04:51:25.461Z,65.14
2018-07-23T04:53:55.233Z,65.01
2018-07-23T04:56:24.906Z,65.07
2018-07-23T04:58:54.589Z,64.81
2018-07-23T05:01:24.099Z,63.45
2018-07-23T05:03:53.671Z,63.27
2018-07-23T05:06:23.449Z,62.93
2018-07-23T05:08:52.942Z,63.33
2018-07-23T05:11:22.434Z,62.61
2018-07-23T05:13:51.914Z,61.39
2018-07-23T05:16:21.576Z,61.09
2018-07-23T05:18:51.203Z,60.29
2018-07-23T05:21:21.095Z,58.33
2018-07-23T05:23:50.801Z,57.33
2018-07-23T05:26:20.669Z,57.25
2018-07-23T05:28:50.471Z,57.16
2018-07-23T05:31:20.413Z,57.86
2018-07-23T05:33:50.175Z,57.51
2018-07-23T05:36:19.903Z,57.47
2018-07-23T05:38:49.821Z,58.15
2018-07-23T05:41:19.402Z,56.02
2018-07-23T05:43:49.045Z,54.45
2018-07-23T05:46:18.671Z,54.92
2018-07-23T05:48:48.417Z,53.68
2018-07-23T05:51:18.167Z,53.31
2018-07-23T05:53:48.084Z,54.05
2018-07-23T05:56:17.889Z,50.71
2018-07-23T05:58:47.932Z,50.62
2018-07-23T06:01:17.859Z,50.13
2018-07-23T06:03:47.378Z,50.59
2018-07-23T06:06:17.070Z,48.26
2018-07-23T06:08:46.940Z,49.93
2018-07-23T06:11:16.884Z,51.13
2018-07-23T06:13:46.829Z,50.88
2018-07-23T06:16:16.426Z,50.30
2018-07-23T06:18:46.107Z,51.55
2018-07-23T06:21:15.678Z,52.76
2018-07-23T06:23:45.507Z,53.51
2018-07-23T06:26:15.601Z,52.69
2018-07-23T06:28:45.255Z,53.41
2018-07-23T06:31:14.995Z,53.50
2018-07-23T06:33:44.863Z,53.45
2018-07-23T06:36:14.843Z,53.93
2018-07-23T06:38:44.637Z,53.46
2018-07-23T06:41:14.287Z,53.61
2018-07-23T06:43:44.404Z,54.08
2018-07-23T06:46:14.170Z,53.68
2018-07-23T06:48:43.738Z,53.24
2018-07-23T06:51:13.258Z,51.99
2018-07-23T06:53:42.792Z,53.48
2018-07-23T06:56:12.394Z,52.56
2018-07-23T06:58:42.036Z,53.45
2018-07-23T07:01:11.538Z,53.24
2018-07-23T07:03:41.329Z,54.18
2018-07-23T07:06:11.310Z,54.23
2018-07-23T07:08:41.379Z,52.91
2018-07-23T07:11:11.147Z,50.99
2018-07-23T07:13:40.817Z,50.31
2018-07-23T07:16:10.669Z,48.86
2018-07-23T07:18:40.399Z,49.81
2018-07-23T07:21:10.021Z,48.96
2018-07-23T07:23:39.770Z,47.47
2018-07-23T07:26:09.288Z,48.88
2018-07-23T07:28:38.807Z,48.78
2018-07-23T07:31:08.354Z,48.80
2018-07-23T07:33:38.186Z,48.44
2018-07-23T07:36:07.839Z,48.64
2018-07-23T07:38:37.534Z,48.44
2018-07-23T07:41:07.954Z,49.06
2018-07-23T07:43:38.079Z,48.48
2018-07-23T07:46:07.647Z,46.90
2018-07-23T07:48:37.450Z,47.36
2018-07-23T07:51:07.397Z,47.90
2018-07-23T07:53:37.537Z,46.17
2018-07-23T07:56:07.250Z,47.57
2018-07-23T07:58:36.811Z,46.58
2018-07-23T08:01:06.314Z,46.33
2018-07-23T08:03:36.359Z,47.47
2018-07-23T08:06:06.039Z,46.31
2018-07-23T08:08:35.830Z,46.38
2018-07-23T08:11:05.609Z,47.32
2018-07-23T08:13:35.581Z,45.43
2018-07-23T08:16:05.526Z,46.00
2018-07-23T08:18:35.662Z,45.51
2018-07-23T08:21:05.394Z,45.85
2018-07-23T08:23:35.247Z,45.80
2018-07-23T08:26:05.425Z,45.18
2018-07-23T08:28:35.545Z,45.81
2018-07-23T08:31:05.136Z,44.38
2018-07-23T08:33:34.766Z,43.38
2018-07-23T08:36:04.375Z,44.00
2018-07-23T08:38:34.282Z,43.79
2018-07-23T08:41:04.085Z,43.21
2018-07-23T08:43:33.921Z,43.71
2018-07-23T08:46:03.573Z,42.41
2018-07-23T08:48:33.478Z,42.77
2018-07-23T08:51:03.452Z,42.41
2018-07-23T08:53:33.160Z,43.10
2018-07-23T08:56:02.789Z,42.16
2018-07-23T08:58:32.503Z,43.20
2018-07-23T09:01:02.254Z,43.09
2018-07-23T09:03:31.910Z,42.01
2018-07-23T09:06:01.543Z,41.54
2018-07-23T09:08:31.120Z,42.00
2018-07-23T09:11:01.137Z,42.06
2018-07-23T09:13:30.994Z,42.23
2018-07-23T09:16:00.952Z,42.38
2018-07-23T09:18:30.639Z,42.33
2018-07-23T09:21:00.711Z,42.86
2018-07-23T09:23:30.682Z,42.36
2018-07-23T09:26:00.397Z,41.99
2018-07-23T09:28:30.328Z,42.34
2018-07-23T09:31:00.233Z,43.28
2018-07-23T09:33:29.967Z,41.91
2018-07-23T09:35:59.735Z,40.45
2018-07-23T09:38:29.385Z,39.04
2018-07-23T09:40:59.090Z,39.62
2018-07-23T09:43:28.764Z,40.14
2018-07-23T09:45:58.410Z,39.09
2018-07-23T09:48:28.032Z,40.03
2018-07-23T09:50:58.107Z,38.49
2018-07-23T09:53:27.800Z,38.93
2018-07-23T09:55:57.750Z,39.94
2018-07-23T09:58:27.666Z,39.21
2018-07-23T10:01:02.248Z,39.20
2018-07-23T10:03:31.939Z,41.51
2018-07-23T10:06:01.510Z,44.19
2018-07-23T10:08:31.340Z,44.76
2018-07-23T10:11:01.377Z,52.16
2018-07-23T10:13:31.336Z,53.43
2018-07-23T10:16:00.796Z,54.86
2018-07-23T10:18:30.702Z,57.25
2018-07-23T10:21:00.315Z,60.63
2018-07-23T10:23:30.492Z,61.02
2018-07-23T10:26:00.103Z,62.96
2018-07-23T10:28:29.909Z,63.78
2018-07-23T10:30:59.645Z,67.97
2018-07-23T10:33:29.560Z,69.29
2018-07-23T10:35:59.257Z,70.71
2018-07-23T10:38:30.076Z,69.83
2018-07-23T10:40:59.831Z,67.74
2018-07-23T10:43:29.331Z,70.75
2018-07-23T10:45:59.029Z,76.30
2018-07-23T10:48:28.565Z,79.10
2018-07-23T10:50:58.345Z,79.03
2018-07-23T10:53:28.282Z,76.82
2018-07-23T10:55:57.924Z,80.25
2018-07-23T10:58:27.708Z,80.62
2018-07-23T11:00:57.687Z,80.07
2018-07-23T11:03:27.419Z,81.59
2018-07-23T11:05:57.110Z,82.80
2018-07-23T11:08:26.866Z,82.71
2018-07-23T11:10:56.425Z,83.15
2018-07-23T11:13:26.315Z,83.55
2018-07-23T11:15:56.158Z,84.49
2018-07-23T11:18:25.803Z,84.55
2018-07-23T11:20:55.410Z,83.02
2018-07-23T11:23:25.107Z,83.40
2018-07-23T11:25:55.116Z,84.29
2018-07-23T11:28:24.955Z,82.51
2018-07-23T11:30:54.670Z,82.88
2018-07-23T11:33:24.648Z,83.13
2018-07-23T11:35:54.749Z,83.77
2018-07-23T11:38:24.552Z,84.51
2018-07-23T11:40:54.222Z,80.77
2018-07-23T11:43:24.007Z,79.26
2018-07-23T11:45:54.159Z,77.68
2018-07-23T11:48:24.003Z,77.59
2018-07-23T11:50:53.660Z,77.06
2018-07-23T11:53:23.307Z,75.00
2018-07-23T11:55:53.663Z,72.66
2018-07-23T11:58:23.316Z,70.82
2018-07-23T12:00:53.186Z,69.25
2018-07-23T12:03:22.920Z,69.13
2018-07-23T12:05:52.702Z,68.59
2018-07-23T12:08:22.310Z,67.75
2018-07-23T12:10:51.794Z,67.45
2018-07-23T12:13:21.388Z,67.91
2018-07-23T12:15:51.300Z,65.37
2018-07-23T12:18:21.290Z,67.86
2018-07-23T12:20:51.140Z,65.25
2018-07-23T12:23:20.881Z,63.20
2018-07-23T12:25:50.386Z,61.74
2018-07-23T12:28:19.882Z,59.36
2018-07-23T12:30:49.592Z,58.97
2018-07-23T12:33:19.287Z,58.09
2018-07-23T12:35:48.929Z,58.43
2018-07-23T12:38:18.738Z,56.90
2018-07-23T12:40:48.574Z,55.35
2018-07-23T12:43:18.526Z,51.10
2018-07-23T12:45:48.276Z,51.61
2018-07-23T12:48:18.468Z,49.03
2018-07-23T12:50:47.995Z,47.40
2018-07-23T12:53:17.686Z,42.92
2018-07-23T12:55:47.466Z,41.55
2018-07-23T12:58:17.074Z,39.09
2018-07-23T13:00:46.579Z,39.46
2018-07-23T13:03:16.149Z,37.87
2018-07-23T13:05:45.798Z,36.81
2018-07-23T13:08:15.769Z,37.74
2018-07-23T13:10:45.543Z,36.69
2018-07-23T13:13:15.543Z,39.51
2018-07-23T13:15:45.176Z,39.96
2018-07-23T13:18:15.727Z,47.49
2018-07-23T13:20:45.678Z,54.35
2018-07-23T13:23:15.519Z,59.13
2018-07-23T13:25:45.258Z,59.58
2018-07-23T13:28:15.178Z,64.62
2018-07-23T13:30:46.303Z,64.64
2018-07-23T13:33:16.247Z,65.52
2018-07-23T13:35:46.038Z,67.80
2018-07-23T13:38:16.168Z,66.18
2018-07-23T13:40:45.791Z,68.38
2018-07-23T13:43:15.606Z,70.67
2018-07-23T13:45:45.267Z,70.46
2018-07-23T13:48:14.966Z,70.12
2018-07-23T13:50:45.267Z,63.31
2018-07-23T13:53:15.223Z,66.80
2018-07-23T13:55:44.996Z,68.43
2018-07-23T13:58:14.554Z,66.78
2018-07-23T14:00:44.092Z,68.24
2018-07-23T14:03:13.648Z,71.53
2018-07-23T14:05:43.214Z,71.54
2018-07-23T14:08:12.898Z,69.43
2018-07-23T14:10:42.610Z,69.47
2018-07-23T14:13:12.289Z,72.84
2018-07-23T14:15:42.030Z,74.01
2018-07-23T14:18:11.813Z,74.65
2018-07-23T14:20:41.671Z,73.25
2018-07-23T14:23:11.475Z,69.40
2018-07-23T14:25:41.077Z,71.65
2018-07-23T14:28:10.798Z,68.15
2018-07-23T14:30:40.610Z,68.22
2018-07-23T14:33:10.202Z,65.14
2018-07-23T14:35:39.922Z,65.13
2018-07-23T14:38:10.028Z,59.79
2018-07-23T14:40:40.032Z,54.13
2018-07-23T14:43:09.648Z,54.96
2018-07-23T14:45:39.312Z,56.68
2018-07-23T14:48:09.400Z,59.83
2018-07-23T14:50:39.492Z,60.91
2018-07-23T14:53:09.458Z,62.21
2018-07-23T14:55:39.284Z,58.32
2018-07-23T14:58:09.026Z,59.36
2018-07-23T15:00:38.452Z,58.29
2018-07-23T15:03:08.090Z,57.98
2018-07-23T15:05:37.630Z,57.61
2018-07-23T15:08:07.302Z,56.98
2018-07-23T15:10:37.327Z,57.58
2018-07-23T15:13:07.185Z,57.44
2018-07-23T15:15:36.847Z,57.04
2018-07-23T15:18:06.503Z,56.96
2018-07-23T15:20:36.371Z,55.92
2018-07-23T15:23:06.251Z,56.51
2018-07-23T15:25:35.968Z,57.23
2018-07-23T15:28:05.711Z,56.33
2018-07-23T15:30:35.535Z,55.74
2018-07-23T15:33:05.172Z,56.56
2018-07-23T15:35:34.801Z,57.48
2018-07-23T15:38:04.570Z,59.06
2018-07-23T15:40:34.090Z,61.54
2018-07-23T15:43:03.883Z,63.56
2018-07-23T15:45:33.828Z,66.44
2018-07-23T15:48:03.694Z,70.17
2018-07-23T15:50:33.526Z,71.12
2018-07-23T15:53:03.194Z,71.22
2018-07-23T15:55:34.227Z,70.29
2018-07-23T15:58:04.346Z,73.18
2018-07-23T16:00:33.977Z,71.68
2018-07-23T16:03:03.762Z,73.15
2018-07-23T16:05:33.689Z,70.97
2018-07-23T16:08:03.502Z,71.16
2018-07-23T16:10:33.610Z,70.78
2018-07-23T16:13:03.576Z,69.55
2018-07-23T16:15:33.439Z,69.35
2018-07-23T16:18:03.092Z,70.56
2018-07-23T16:20:33.160Z,68.82
2018-07-23T16:23:03.086Z,66.87
2018-07-23T16:25:32.912Z,67.16
2018-07-23T16:28:02.655Z,66.01
2018-07-23T16:30:32.297Z,66.41
2018-07-23T16:33:01.907Z,65.80
2018-07-23T16:35:31.463Z,64.20
2018-07-23T16:38:01.375Z,62.94
2018-07-23T16:40:31.215Z,64.58
2018-07-23T16:43:00.878Z,63.97
2018-07-23T16:45:37.223Z,62.45
2018-07-23T16:48:07.401Z,63.28
2018-07-23T16:50:37.283Z,64.50
2018-07-23T16:53:08.193Z,65.62
2018-07-23T16:55:37.854Z,66.40
2018-07-23T16:58:07.968Z,65.78
2018-07-23T17:00:37.561Z,66.61
2018-07-23T17:03:07.312Z,65.62
2018-07-23T17:05:37.497Z,65.81
2018-07-23T17:08:07.160Z,66.82
2018-07-23T17:10:37.010Z,65.99
2018-07-23T17:13:06.795Z,67.13
2018-07-23T17:15:37.024Z,66.88
2018-07-23T17:18:07.223Z,67.11
2018-07-23T17:20:36.754Z,67.88
2018-07-23T17:23:06.731Z,67.82
2018-07-23T17:25:36.562Z,67.43
2018-07-23T17:28:06.578Z,68.08
2018-07-23T17:30:36.243Z,68.97
2018-07-23T17:33:06.007Z,68.95
2018-07-23T17:35:36.042Z,70.92
2018-07-23T17:38:06.075Z,74.04
2018-07-23T17:40:36.145Z,77.91
2018-07-23T17:43:06.613Z,76.77
2018-07-23T17:45:36.651Z,79.74
2018-07-23T17:48:06.579Z,81.21
2018-07-23T17:50:36.405Z,82.47
2018-07-23T17:53:06.407Z,84.07
2018-07-23T17:55:36.310Z,84.45
2018-07-23T17:58:06.003Z,85.22
2018-07-23T18:00:35.621Z,85.60
2018-07-23T18:03:05.431Z,85.69
2018-07-23T18:05:35.336Z,85.54
2018-07-23T18:08:05.301Z,86.58
2018-07-23T18:10:35.286Z,86.81
2018-07-23T18:13:05.204Z,86.56
2018-07-23T18:15:35.321Z,87.12
2018-07-23T18:18:05.095Z,87.49
2018-07-23T18:20:34.923Z,87.76
2018-07-23T18:23:04.546Z,87.96
2018-07-23T18:25:34.578Z,88.14
2018-07-23T18:28:04.308Z,88.03
2018-07-23T18:30:33.897Z,88.00
2018-07-23T18:33:03.487Z,88.40
2018-07-23T18:35:33.210Z,87.89
2018-07-23T18:38:03.180Z,88.65
2018-07-23T18:40:32.685Z,88.62
2018-07-23T18:43:02.432Z,88.92
2018-07-23T18:45:32.219Z,88.80
2018-07-23T18:48:01.992Z,88.90
2018-07-23T18:50:31.990Z,89.37
2018-07-23T18:53:01.888Z,89.14
2018-07-23T18:55:31.771Z,89.10
2018-07-23T18:58:01.808Z,89.18
2018-07-23T19:00:31.433Z,88.76
2018-07-23T19:03:01.087Z,88.68
2018-07-23T19:05:31.032Z,88.88
2018-07-23T19:08:00.960Z,89.29
2018-07-23T19:10:30.604Z,88.92
2018-07-23T19:13:00.347Z,89.51
2018-07-23T19:15:30.221Z,89.79
2018-07-23T19:18:00.080Z,90.09
2018-07-23T19:20:30.039Z,89.52
2018-07-23T19:22:59.716Z,88.67
2018-07-23T19:25:29.348Z,87.86
2018-07-23T19:27:58.918Z,87.68
2018-07-23T19:30:28.543Z,88.10
2018-07-23T19:32:58.165Z,88.50
2018-07-23T19:35:27.901Z,88.76
2018-07-23T19:37:57.462Z,88.35
2018-07-23T19:40:27.389Z,88.20
2018-07-23T19:42:57.269Z,88.42
2018-07-23T19:45:26.850Z,88.41
2018-07-23T19:47:56.424Z,87.97
2018-07-23T19:50:26.947Z,88.73
2018-07-23T19:52:57.589Z,89.08
2018-07-23T19:55:27.991Z,89.23
2018-07-23T19:57:57.693Z,89.36
2018-07-23T20:00:27.214Z,88.88
2018-07-23T20:02:56.753Z,88.95
2018-07-23T20:05:26.693Z,88.65
2018-07-23T20:07:56.403Z,89.07
2018-07-23T20:10:26.369Z,90.40
2018-07-23T20:12:56.342Z,89.05
2018-07-23T20:15:26.304Z,89.36
2018-07-23T20:17:56.550Z,89.02
2018-07-23T20:20:26.346Z,88.52
2018-07-23T20:22:55.994Z,88.43
2018-07-23T20:25:25.837Z,88.76
2018-07-23T20:27:55.891Z,88.58
2018-07-23T20:30:25.606Z,88.22
2018-07-23T20:32:55.253Z,88.39
2018-07-23T20:35:24.903Z,88.47
2018-07-23T20:37:54.743Z,88.36
2018-07-23T20:40:24.826Z,88.18
2018-07-23T20:42:55.198Z,88.27
2018-07-23T20:45:25.206Z,88.07
2018-07-23T20:47:55.289Z,87.64
2018-07-23T20:50:24.868Z,87.35
2018-07-23T20:52:54.600Z,87.16
2018-07-23T20:55:24.828Z,87.03
2018-07-23T20:57:54.377Z,86.91
2018-07-23T21:00:23.914Z,86.60
2018-07-23T21:02:53.695Z,86.62
2018-07-23T21:05:23.393Z,86.15
2018-07-23T21:07:53.135Z,86.36
2018-07-23T21:10:23.228Z,86.30
2018-07-23T21:12:52.989Z,86.38
2018-07-23T21:15:22.827Z,87.15
2018-07-23T21:17:52.610Z,87.65
2018-07-23T21:20:22.371Z,88.37
2018-07-23T21:22:52.165Z,88.50
2018-07-23T21:25:21.983Z,89.36
2018-07-23T21:27:51.598Z,89.68
2018-07-23T21:30:21.458Z,89.84
2018-07-23T21:32:51.247Z,89.93
2018-07-23T21:35:20.753Z,90.09
2018-07-23T21:37:50.414Z,90.00
2018-07-23T21:40:20.317Z,90.49
2018-07-23T21:42:50.233Z,89.32
2018-07-23T21:45:19.871Z,89.59
2018-07-23T21:47:49.854Z,89.57
2018-07-23T21:50:19.757Z,89.31
2018-07-23T21:52:49.564Z,89.00
2018-07-23T21:55:19.247Z,88.99
2018-07-23T21:57:48.982Z,89.37
2018-07-23T22:00:18.614Z,89.36
2018-07-23T22:02:48.623Z,89.67
2018-07-23T22:05:18.390Z,89.51
2018-07-23T22:07:48.258Z,89.42
2018-07-23T22:10:17.898Z,90.06
2018-07-23T22:12:47.799Z,89.54
2018-07-23T22:15:17.811Z,89.48
2018-07-23T22:17:47.357Z,89.32
2018-07-23T22:20:17.127Z,89.18
2018-07-23T22:22:46.988Z,88.27
2018-07-23T22:25:16.915Z,88.74
2018-07-23T22:27:46.965Z,88.71
2018-07-23T22:30:16.690Z,88.87
2018-07-23T22:32:46.426Z,88.79
2018-07-23T22:35:16.293Z,88.81
2018-07-23T22:37:46.253Z,89.06
2018-07-23T22:40:16.198Z,88.68
2018-07-23T22:42:46.258Z,89.34
2018-07-23T22:45:16.027Z,89.12
2018-07-23T22:47:45.946Z,89.42
2018-07-23T22:50:15.656Z,89.64
2018-07-23T22:52:45.578Z,89.62
2018-07-23T22:55:15.281Z,89.65
2018-07-23T22:57:45.003Z,89.51
2018-07-23T23:00:14.746Z,89.75
2018-07-23T23:02:44.364Z,89.03
2018-07-23T23:05:13.955Z,89.44
2018-07-23T23:07:43.733Z,89.53
2018-07-23T23:10:13.557Z,89.42
2018-07-23T23:12:43.302Z,89.56
2018-07-23T23:15:13.161Z,89.38
2018-07-23T23:17:42.922Z,89.68
2018-07-23T23:20:12.680Z,89.88
2018-07-23T23:22:42.625Z,89.46
2018-07-23T23:25:12.227Z,89.95
2018-07-23T23:27:41.843Z,89.05
2018-07-23T23:30:12.077Z,88.70
2018-07-23T23:32:41.845Z,88.67
2018-07-23T23:37:46.524Z,88.28
2018-07-23T23:40:16.462Z,88.11
2018-07-23T23:42:46.020Z,88.86
2018-07-23T23:45:15.986Z,88.67
2018-07-23T23:47:45.898Z,88.42
2018-07-23T23:50:15.774Z,87.99
2018-07-23T23:52:45.542Z,87.54
2018-07-23T23:55:15.242Z,87.71
2018-07-23T23:57:44.871Z,86.67
